createdAt,value
2023-02-18T00:01:48.658Z,90.87
2023-02-18T00:04:50.158Z,90.14
2023-02-18T00:07:51.811Z,90.33
2023-02-18T00:10:53.990Z,90.58
2023-02-18T00:13:59.276Z,90.97
2023-02-18T00:17:00.778Z,91.13
2023-02-18T00:20:02.366Z,91.27
2023-02-18T00:23:03.902Z,91.43
2023-02-18T00:26:17.090Z,91.72
2023-02-18T00:29:19.775Z,92.08
2023-02-18T00:32:22.877Z,93.24
2023-02-18T00:35:24.420Z,93.40
2023-02-18T00:38:25.837Z,93.15
2023-02-18T00:41:29.783Z,93.41
2023-02-18T00:44:31.928Z,93.55
2023-02-18T00:47:33.447Z,94.40
2023-02-18T00:50:35.664Z,93.92
2023-02-18T00:53:37.609Z,94.43
2023-02-18T00:56:39.073Z,94.61
2023-02-18T00:59:40.543Z,95.18
2023-02-18T01:02:42.102Z,95.08
2023-02-18T01:05:44.695Z,95.47
2023-02-18T01:08:46.134Z,95.81
2023-02-18T01:11:47.574Z,95.85
2023-02-18T01:14:49.016Z,94.68
2023-02-18T01:17:51.800Z,93.91
2023-02-18T01:20:53.730Z,93.54
2023-02-18T01:23:55.287Z,94.19
2023-02-18T01:26:56.759Z,94.19
2023-02-18T01:29:58.318Z,94.74
2023-02-18T01:33:00.269Z,94.62
2023-02-18T01:36:01.951Z,94.91
2023-02-18T01:39:05.593Z,94.94
2023-02-18T01:42:07.207Z,94.89
2023-02-18T01:45:47.754Z,94.99
2023-02-18T01:48:58.401Z,95.08
2023-02-18T01:52:16.139Z,95.53
2023-02-18T01:55:18.790Z,95.21
2023-02-18T01:58:21.004Z,95.71
2023-02-18T02:01:23.951Z,95.88
2023-02-18T02:04:26.277Z,95.82
2023-02-18T02:07:28.724Z,95.56
2023-02-18T02:10:41.020Z,95.58
2023-02-18T02:14:16.006Z,94.87
2023-02-18T02:17:39.706Z,94.66
2023-02-18T02:20:45.124Z,94.00
2023-02-18T02:24:02.095Z,94.40
2023-02-18T02:27:25.255Z,93.89
2023-02-18T02:30:53.055Z,93.54
2023-02-18T02:34:17.695Z,93.65
2023-02-18T02:37:19.090Z,93.53
2023-02-18T02:40:27.799Z,93.42
2023-02-18T02:43:48.444Z,93.73
2023-02-18T02:47:02.228Z,93.75
2023-02-18T02:50:09.625Z,93.47
2023-02-18T02:53:20.253Z,93.83
2023-02-18T02:56:25.443Z,94.74
2023-02-18T02:59:29.370Z,95.17
2023-02-18T03:03:09.638Z,95.48
2023-02-18T03:06:27.108Z,95.72
2023-02-18T03:09:34.702Z,95.63
2023-02-18T03:12:51.417Z,95.47
2023-02-18T03:16:16.689Z,94.95
2023-02-18T03:19:28.950Z,94.85
2023-02-18T03:22:39.904Z,94.75
2023-02-18T03:25:42.300Z,94.99
2023-02-18T03:28:45.687Z,94.95
2023-02-18T03:31:52.742Z,95.34
2023-02-18T03:35:00.808Z,94.06
2023-02-18T03:38:17.443Z,93.68
2023-02-18T03:41:18.926Z,93.29
2023-02-18T03:44:20.657Z,92.55
2023-02-18T03:47:23.957Z,92.50
2023-02-18T03:50:25.460Z,92.13
2023-02-18T03:53:26.981Z,91.82
2023-02-18T03:56:28.427Z,91.51
2023-02-18T03:59:30.095Z,91.31
2023-02-18T04:02:31.632Z,90.81
2023-02-18T04:05:33.135Z,90.58
2023-02-18T04:08:34.805Z,90.34
2023-02-18T04:11:38.937Z,89.99
2023-02-18T04:14:40.434Z,90.73
2023-02-18T04:17:42.006Z,91.23
2023-02-18T04:20:43.893Z,90.93
2023-02-18T04:23:45.394Z,91.14
2023-02-18T04:26:46.922Z,90.49
2023-02-18T04:29:48.474Z,90.46
2023-02-18T04:32:49.948Z,90.29
2023-02-18T04:35:51.419Z,90.33
2023-02-18T04:38:52.977Z,90.25
2023-02-18T04:41:54.564Z,90.79
2023-02-18T04:44:56.079Z,92.07
2023-02-18T04:47:57.631Z,92.78
2023-02-18T04:50:59.053Z,92.69
2023-02-18T04:54:00.509Z,92.57
2023-02-18T04:57:02.103Z,91.85
2023-02-18T05:00:06.854Z,91.63
2023-02-18T05:03:08.329Z,91.10
2023-02-18T05:06:10.177Z,90.44
2023-02-18T05:09:12.451Z,90.43
2023-02-18T05:12:13.973Z,90.45
2023-02-18T05:15:15.610Z,89.99
2023-02-18T05:18:17.064Z,89.04
2023-02-18T05:21:18.714Z,87.20
2023-02-18T05:24:20.231Z,86.31
2023-02-18T05:27:21.713Z,85.22
2023-02-18T05:30:23.243Z,85.60
2023-02-18T05:33:24.933Z,85.23
2023-02-18T05:36:26.860Z,85.58
2023-02-18T05:39:28.366Z,85.88
2023-02-18T05:42:29.878Z,86.45
2023-02-18T05:45:31.458Z,85.25
2023-02-18T05:48:32.948Z,84.17
2023-02-18T05:51:34.471Z,83.56
2023-02-18T05:54:36.937Z,83.75
2023-02-18T05:57:38.409Z,84.09
2023-02-18T06:00:39.906Z,83.51
2023-02-18T06:03:41.418Z,83.50
2023-02-18T06:06:43.237Z,84.08
2023-02-18T06:09:44.732Z,83.89
2023-02-18T06:12:46.270Z,84.41
2023-02-18T06:15:51.701Z,84.24
2023-02-18T06:18:53.293Z,84.33
2023-02-18T06:21:56.196Z,85.13
2023-02-18T06:24:57.674Z,84.72
2023-02-18T06:27:59.187Z,85.40
2023-02-18T06:31:00.787Z,86.13
2023-02-18T06:34:02.314Z,85.72
2023-02-18T06:37:03.867Z,85.66
2023-02-18T06:40:06.832Z,85.24
2023-02-18T06:43:08.359Z,85.05
2023-02-18T06:46:10.279Z,84.48
2023-02-18T06:49:11.989Z,84.40
2023-02-18T06:52:14.579Z,84.91
2023-02-18T06:55:16.101Z,86.50
2023-02-18T06:58:17.829Z,88.46
2023-02-18T07:01:19.353Z,87.05
2023-02-18T07:04:20.806Z,85.71
2023-02-18T07:07:22.234Z,85.17
2023-02-18T07:10:23.976Z,84.95
2023-02-18T07:13:25.472Z,84.29
2023-02-18T07:16:27.151Z,83.98
2023-02-18T07:19:28.649Z,83.47
2023-02-18T07:22:30.364Z,83.74
2023-02-18T07:25:31.875Z,84.18
2023-02-18T07:28:33.401Z,84.03
2023-02-18T07:31:34.893Z,84.32
2023-02-18T07:34:36.450Z,84.95
2023-02-18T07:37:37.896Z,85.51
2023-02-18T07:40:39.387Z,84.79
2023-02-18T07:43:40.832Z,83.95
2023-02-18T07:46:42.711Z,83.47
2023-02-18T07:49:44.433Z,82.95
2023-02-18T07:52:45.904Z,81.72
2023-02-18T07:55:50.317Z,80.48
2023-02-18T07:58:51.835Z,79.75
2023-02-18T08:01:53.330Z,79.35
2023-02-18T08:04:54.833Z,79.80
2023-02-18T08:07:56.359Z,79.84
2023-02-18T08:11:07.152Z,79.94
2023-02-18T08:14:15.005Z,79.82
2023-02-18T08:17:17.553Z,81.00
2023-02-18T08:20:19.166Z,81.23
2023-02-18T08:23:21.826Z,81.18
2023-02-18T08:26:23.331Z,80.97
2023-02-18T08:29:24.804Z,80.81
2023-02-18T08:32:29.446Z,80.53
2023-02-18T08:35:30.981Z,79.75
2023-02-18T08:38:32.438Z,80.09
2023-02-18T08:41:33.912Z,80.43
2023-02-18T08:44:35.354Z,80.64
2023-02-18T08:48:18.538Z,81.30
2023-02-18T08:50:59.056Z,81.91
2023-02-18T08:54:00.567Z,82.18
2023-02-18T08:57:01.997Z,81.73
2023-02-18T09:00:04.059Z,80.91
2023-02-18T09:03:05.817Z,79.95
2023-02-18T09:06:07.927Z,80.02
2023-02-18T09:09:10.291Z,79.00
2023-02-18T09:12:11.726Z,79.58
2023-02-18T09:15:13.279Z,79.75
2023-02-18T09:18:14.729Z,80.12
2023-02-18T09:21:18.955Z,80.63
2023-02-18T09:24:20.740Z,80.60
2023-02-18T09:27:22.276Z,81.13
2023-02-18T09:30:23.828Z,81.87
2023-02-18T09:33:25.257Z,82.00
2023-02-18T09:36:27.778Z,81.85
2023-02-18T09:39:29.410Z,81.82
2023-02-18T09:42:34.830Z,81.77
2023-02-18T09:45:36.337Z,82.45
2023-02-18T09:48:37.962Z,82.91
2023-02-18T09:51:39.601Z,81.51
2023-02-18T09:54:41.233Z,80.32
2023-02-18T09:57:49.302Z,79.11
2023-02-18T10:01:21.985Z,77.34
2023-02-18T10:04:43.018Z,76.09
2023-02-18T10:07:46.583Z,76.04
2023-02-18T10:10:48.183Z,74.50
2023-02-18T10:13:50.761Z,74.04
2023-02-18T10:16:53.712Z,73.25
2023-02-18T10:19:56.873Z,72.81
2023-02-18T10:23:01.236Z,71.79
2023-02-18T10:26:07.585Z,71.84
2023-02-18T10:29:20.977Z,70.53
2023-02-18T10:32:27.565Z,68.79
2023-02-18T10:35:38.447Z,67.37
2023-02-18T10:39:03.182Z,66.65
2023-02-18T10:42:23.414Z,66.50
2023-02-18T10:45:56.989Z,66.13
2023-02-18T10:49:09.673Z,66.01
2023-02-18T10:52:17.452Z,66.27
2023-02-18T10:55:19.177Z,67.67
2023-02-18T10:58:35.938Z,67.74
2023-02-18T11:01:38.202Z,67.88
2023-02-18T11:04:42.353Z,66.85
2023-02-18T11:07:48.811Z,65.96
2023-02-18T11:10:50.903Z,66.23
2023-02-18T11:13:58.614Z,65.72
2023-02-18T11:17:09.833Z,66.05
2023-02-18T11:20:23.393Z,65.48
2023-02-18T11:23:25.732Z,65.34
2023-02-18T11:26:33.714Z,64.83
2023-02-18T11:29:35.606Z,64.74
2023-02-18T11:32:38.124Z,63.78
2023-02-18T11:35:39.836Z,63.12
2023-02-18T11:38:49.363Z,63.28
2023-02-18T11:41:56.775Z,63.14
2023-02-18T11:45:00.331Z,63.08
2023-02-18T11:48:19.103Z,62.65
2023-02-18T11:51:28.330Z,63.18
2023-02-18T11:54:31.498Z,63.36
2023-02-18T11:57:36.944Z,63.45
2023-02-18T12:00:42.670Z,63.33
2023-02-18T12:03:54.626Z,63.25
2023-02-18T12:07:13.973Z,63.45
2023-02-18T12:10:25.206Z,63.75
2023-02-18T12:13:42.878Z,63.30
2023-02-18T12:17:07.063Z,63.64
2023-02-18T12:20:34.916Z,62.65
2023-02-18T12:24:04.302Z,62.25
2023-02-18T12:27:20.676Z,61.84
2023-02-18T12:30:43.455Z,61.78
2023-02-18T12:34:10.325Z,61.62
2023-02-18T12:37:32.452Z,61.81
2023-02-18T12:41:05.873Z,60.83
2023-02-18T12:44:22.561Z,62.01
2023-02-18T12:47:46.968Z,61.16
2023-02-18T12:51:13.420Z,61.34
2023-02-18T12:54:29.961Z,61.03
2023-02-18T12:57:43.254Z,60.17
2023-02-18T13:01:04.710Z,59.79
2023-02-18T13:04:25.805Z,59.10
2023-02-18T13:07:34.240Z,59.69
2023-02-18T13:11:08.997Z,59.33
2023-02-18T13:14:29.430Z,60.15
2023-02-18T13:17:36.618Z,60.88
2023-02-18T13:20:46.647Z,61.39
2023-02-18T13:24:02.528Z,61.70
2023-02-18T13:27:22.851Z,62.41
2023-02-18T13:30:36.431Z,62.56
2023-02-18T13:33:55.683Z,63.43
2023-02-18T13:37:08.684Z,63.60
2023-02-18T13:40:19.600Z,63.36
2023-02-18T13:43:21.124Z,62.86
2023-02-18T13:46:24.555Z,62.59
2023-02-18T13:49:32.238Z,62.81
2023-02-18T13:52:33.746Z,62.58
2023-02-18T13:55:56.654Z,63.68
2023-02-18T13:59:09.102Z,64.26
2023-02-18T14:02:19.610Z,64.12
2023-02-18T14:05:23.827Z,65.03
2023-02-18T14:08:35.827Z,64.92
2023-02-18T14:12:23.691Z,65.38
2023-02-18T14:15:25.157Z,63.91
2023-02-18T14:18:39.908Z,64.17
2023-02-18T14:21:43.283Z,64.20
2023-02-18T14:24:49.803Z,63.75
2023-02-18T14:27:53.609Z,63.55
2023-02-18T14:30:55.264Z,63.09
2023-02-18T14:33:59.577Z,63.32
2023-02-18T14:37:19.439Z,63.30
2023-02-18T14:40:41.416Z,63.66
2023-02-18T14:43:52.324Z,63.53
2023-02-18T14:47:02.174Z,63.69
2023-02-18T14:50:11.168Z,64.20
2023-02-18T14:53:18.526Z,63.06
2023-02-18T14:56:22.003Z,62.68
2023-02-18T14:59:28.357Z,62.79
2023-02-18T15:02:32.995Z,61.97
2023-02-18T15:05:38.127Z,62.03
2023-02-18T15:08:40.284Z,62.83
2023-02-18T15:11:54.846Z,62.99
2023-02-18T15:15:02.563Z,63.00
2023-02-18T15:18:05.130Z,63.47
2023-02-18T15:21:19.802Z,63.45
2023-02-18T15:24:32.608Z,63.56
2023-02-18T15:27:39.354Z,63.71
2023-02-18T15:30:40.866Z,63.93
2023-02-18T15:33:44.462Z,63.68
2023-02-18T15:36:53.220Z,63.93
2023-02-18T15:39:54.799Z,63.32
2023-02-18T15:42:58.876Z,63.19
2023-02-18T15:46:00.405Z,63.25
2023-02-18T15:49:07.667Z,63.67
2023-02-18T15:52:09.222Z,63.69
2023-02-18T15:55:27.038Z,63.71
2023-02-18T15:58:32.648Z,63.96
2023-02-18T16:01:34.598Z,64.53
2023-02-18T16:04:41.427Z,64.62
2023-02-18T16:07:52.573Z,64.91
2023-02-18T16:11:03.183Z,65.38
2023-02-18T16:14:07.892Z,65.24
2023-02-18T16:17:12.077Z,65.33
2023-02-18T16:20:30.676Z,64.97
2023-02-18T16:23:54.339Z,65.22
2023-02-18T16:27:00.300Z,65.54
2023-02-18T16:30:14.724Z,65.89
2023-02-18T16:33:16.224Z,66.30
2023-02-18T16:36:18.027Z,66.69
2023-02-18T16:39:19.493Z,66.92
2023-02-18T16:42:21.141Z,67.12
2023-02-18T16:45:32.431Z,67.14
2023-02-18T16:48:37.390Z,67.41
2023-02-18T16:51:39.573Z,67.51
2023-02-18T16:54:41.797Z,67.74
2023-02-18T16:57:43.262Z,67.58
2023-02-18T17:00:46.803Z,67.35
2023-02-18T17:03:48.984Z,67.38
2023-02-18T17:06:50.534Z,67.27
2023-02-18T17:09:52.037Z,67.77
2023-02-18T17:12:53.481Z,67.61
2023-02-18T17:15:57.112Z,67.48
2023-02-18T17:18:58.605Z,67.82
2023-02-18T17:22:00.105Z,68.38
2023-02-18T17:25:01.575Z,68.15
2023-02-18T17:28:03.487Z,68.83
2023-02-18T17:31:05.301Z,68.87
2023-02-18T17:34:09.408Z,69.16
2023-02-18T17:37:14.041Z,69.50
2023-02-18T17:40:17.878Z,69.38
2023-02-18T17:43:19.753Z,69.55
2023-02-18T17:46:22.056Z,69.77
2023-02-18T17:49:23.701Z,70.05
2023-02-18T17:52:30.677Z,69.70
2023-02-18T17:55:35.321Z,69.88
2023-02-18T17:58:36.765Z,70.02
2023-02-18T18:01:38.540Z,70.66
2023-02-18T18:04:40.066Z,70.19
2023-02-18T18:07:41.588Z,70.68
2023-02-18T18:10:54.892Z,71.04
2023-02-18T18:13:57.912Z,71.10
2023-02-18T18:17:00.237Z,71.81
2023-02-18T18:20:01.714Z,72.14
2023-02-18T18:23:05.180Z,72.18
2023-02-18T18:26:06.625Z,72.31
2023-02-18T18:29:08.207Z,72.18
2023-02-18T18:32:09.728Z,72.69
2023-02-18T18:35:35.538Z,72.41
2023-02-18T18:38:37.000Z,72.15
2023-02-18T18:41:38.460Z,72.42
2023-02-18T18:44:40.768Z,72.44
2023-02-18T18:47:42.209Z,72.24
2023-02-18T18:50:44.257Z,72.52
2023-02-18T18:53:45.916Z,72.54
2023-02-18T18:56:50.193Z,72.15
2023-02-18T18:59:51.726Z,72.44
2023-02-18T19:02:53.348Z,72.91
2023-02-18T19:05:55.555Z,73.31
2023-02-18T19:08:57.171Z,72.89
2023-02-18T19:11:58.648Z,72.63
2023-02-18T19:15:00.151Z,72.95
2023-02-18T19:18:01.698Z,72.54
2023-02-18T19:21:04.701Z,72.80
2023-02-18T19:24:06.188Z,72.44
2023-02-18T19:27:10.128Z,72.71
2023-02-18T19:30:22.856Z,72.72
2023-02-18T19:33:24.376Z,72.62
2023-02-18T19:36:25.944Z,72.28
2023-02-18T19:39:27.397Z,72.19
2023-02-18T19:42:29.773Z,72.45
2023-02-18T19:45:31.905Z,72.54
2023-02-18T19:48:33.348Z,72.42
2023-02-18T19:51:34.835Z,72.16
2023-02-18T19:54:36.304Z,72.32
2023-02-18T19:57:38.085Z,72.79
2023-02-18T20:00:40.434Z,72.68
2023-02-18T20:03:42.828Z,72.80
2023-02-18T20:06:44.292Z,72.81
2023-02-18T20:09:46.195Z,72.68
2023-02-18T20:12:53.986Z,72.60
2023-02-18T20:15:55.622Z,72.78
2023-02-18T20:18:57.148Z,72.41
2023-02-18T20:22:00.124Z,72.31
2023-02-18T20:25:01.745Z,72.85
2023-02-18T20:28:03.208Z,72.80
2023-02-18T20:31:07.149Z,73.06
2023-02-18T20:34:09.923Z,73.17
2023-02-18T20:37:11.495Z,72.71
2023-02-18T20:40:13.015Z,72.93
2023-02-18T20:43:14.458Z,72.72
2023-02-18T20:46:18.926Z,72.98
2023-02-18T20:49:21.906Z,73.52
2023-02-18T20:52:23.379Z,73.78
2023-02-18T20:55:25.009Z,73.62
2023-02-18T20:58:27.122Z,73.53
2023-02-18T21:01:28.780Z,73.33
2023-02-18T21:04:30.289Z,73.95
2023-02-18T21:07:31.842Z,73.69
2023-02-18T21:10:33.253Z,73.72
2023-02-18T21:13:35.170Z,74.15
2023-02-18T21:16:39.750Z,73.60
2023-02-18T21:19:41.663Z,73.77
2023-02-18T21:22:43.132Z,74.24
2023-02-18T21:25:44.994Z,73.94
2023-02-18T21:28:48.374Z,74.28
2023-02-18T21:31:50.021Z,74.24
2023-02-18T21:34:51.650Z,74.62
2023-02-18T21:37:53.122Z,74.47
2023-02-18T21:40:54.619Z,74.34
2023-02-18T21:43:56.509Z,74.63
2023-02-18T21:46:58.035Z,74.30
2023-02-18T21:49:59.474Z,73.97
2023-02-18T21:53:04.134Z,74.28
2023-02-18T21:56:11.396Z,74.72
2023-02-18T21:59:12.951Z,74.50
2023-02-18T22:02:17.565Z,74.23
2023-02-18T22:05:19.074Z,74.09
2023-02-18T22:08:21.208Z,74.11
2023-02-18T22:11:22.668Z,74.15
2023-02-18T22:14:24.136Z,73.89
2023-02-18T22:17:26.022Z,74.12
2023-02-18T22:20:27.561Z,74.06
2023-02-18T22:23:31.276Z,73.62
2023-02-18T22:26:32.997Z,74.03
2023-02-18T22:29:34.576Z,73.64
2023-02-18T22:32:36.114Z,73.15
2023-02-18T22:35:37.602Z,72.98
2023-02-18T22:38:39.788Z,72.94
2023-02-18T22:41:42.141Z,73.39
2023-02-18T22:44:43.580Z,72.83
2023-02-18T22:47:45.044Z,72.82
2023-02-18T22:50:46.570Z,72.83
2023-02-18T22:53:48.074Z,72.73
2023-02-18T22:56:49.537Z,73.37
2023-02-18T22:59:50.958Z,73.28
2023-02-18T23:02:53.262Z,73.04
2023-02-18T23:05:55.352Z,73.06
2023-02-18T23:08:57.190Z,73.00
2023-02-18T23:11:58.692Z,72.91
2023-02-18T23:15:00.209Z,72.37
2023-02-18T23:18:01.645Z,71.81
2023-02-18T23:21:20.734Z,71.50
2023-02-18T23:24:22.559Z,71.25
2023-02-18T23:27:24.494Z,71.50
2023-02-18T23:30:26.115Z,71.00
2023-02-18T23:33:27.886Z,71.56
2023-02-18T23:36:31.085Z,71.49
2023-02-18T23:39:32.900Z,71.54
2023-02-18T23:42:34.396Z,71.51
2023-02-18T23:45:35.860Z,72.35
2023-02-18T23:48:38.418Z,72.08
2023-02-18T23:51:40.019Z,72.13
2023-02-18T23:54:41.515Z,72.00
2023-02-18T23:57:42.993Z,72.13
